createdAt,value
2017-08-01T00:00:23.101Z,89.50
2017-08-01T00:02:49.082Z,89.90
2017-08-01T00:05:15.156Z,89.80
2017-08-01T00:07:41.175Z,89.10
2017-08-01T00:10:07.141Z,87.90
2017-08-01T00:12:33.167Z,87.70
2017-08-01T00:14:59.167Z,87.30
2017-08-01T00:17:26.031Z,86.90
2017-08-01T00:19:52.015Z,86.00
2017-08-01T00:22:17.980Z,85.90
2017-08-01T00:24:44.220Z,85.40
2017-08-01T00:27:10.299Z,85.40
2017-08-01T00:29:36.327Z,85.20
2017-08-01T00:32:03.849Z,85.70
2017-08-01T00:34:29.837Z,85.60
2017-08-01T00:36:55.884Z,84.50
2017-08-01T00:39:21.852Z,84.90
2017-08-01T00:41:47.878Z,85.00
2017-08-01T00:44:14.194Z,85.40
2017-08-01T00:46:41.160Z,85.00
2017-08-01T00:49:08.036Z,84.80
2017-08-01T00:51:34.428Z,84.70
2017-08-01T00:54:00.404Z,86.00
2017-08-01T00:56:26.457Z,86.70
2017-08-01T00:58:52.503Z,87.20
2017-08-01T01:01:18.514Z,86.60
2017-08-01T01:03:44.497Z,86.90
2017-08-01T01:06:10.556Z,87.50
2017-08-01T01:08:36.717Z,89.70
2017-08-01T01:11:03.377Z,90.00
2017-08-01T01:13:29.344Z,89.20
2017-08-01T01:18:29.073Z,87.20
2017-08-01T01:20:55.114Z,83.60
2017-08-01T01:23:21.179Z,83.10
2017-08-01T01:25:47.399Z,82.70
2017-08-01T01:28:14.415Z,84.00
2017-08-01T01:30:40.384Z,83.50
2017-08-01T01:33:06.403Z,84.90
2017-08-01T01:35:32.491Z,87.50
2017-08-01T01:37:59.064Z,90.40
2017-08-01T01:40:25.074Z,92.50
2017-08-01T01:42:52.105Z,93.40
2017-08-01T01:45:18.211Z,93.10
2017-08-01T01:47:44.167Z,93.00
2017-08-01T01:50:10.112Z,93.40
2017-08-01T01:52:36.063Z,93.80
2017-08-01T01:55:02.038Z,93.50
2017-08-01T01:57:28.008Z,93.40
2017-08-01T01:59:54.034Z,92.90
2017-08-01T02:02:19.999Z,93.70
2017-08-01T02:04:46.075Z,93.80
2017-08-01T02:07:12.186Z,93.90
2017-08-01T02:09:38.199Z,93.70
2017-08-01T02:12:04.246Z,93.50
2017-08-01T02:14:30.277Z,93.60
2017-08-01T02:17:01.394Z,93.60
2017-08-01T02:19:28.198Z,93.70
2017-08-01T02:21:54.362Z,93.90
2017-08-01T02:24:20.363Z,93.60
2017-08-01T02:26:46.309Z,93.60
2017-08-01T02:29:13.032Z,93.80
2017-08-01T02:31:39.037Z,93.80
2017-08-01T02:34:05.052Z,93.70
2017-08-01T02:36:31.136Z,93.80
2017-08-01T02:38:57.103Z,94.00
2017-08-01T02:41:23.127Z,94.20
2017-08-01T02:43:49.102Z,94.00
2017-08-01T02:46:15.077Z,93.90
2017-08-01T02:48:41.148Z,94.10
2017-08-01T02:51:07.243Z,93.80
2017-08-01T02:53:33.193Z,93.70
2017-08-01T02:55:59.170Z,93.50
2017-08-01T02:58:25.110Z,93.40
2017-08-01T03:00:51.092Z,93.80
2017-08-01T03:03:17.248Z,93.70
2017-08-01T03:05:43.230Z,93.30
2017-08-01T03:08:09.193Z,93.40
2017-08-01T03:10:35.244Z,93.20
2017-08-01T03:13:01.232Z,93.90
2017-08-01T03:15:27.181Z,93.90
2017-08-01T03:17:53.201Z,93.60
2017-08-01T03:20:19.150Z,93.80
2017-08-01T03:22:45.179Z,93.50
2017-08-01T03:25:11.198Z,92.90
2017-08-01T03:27:37.165Z,93.30
2017-08-01T03:30:03.250Z,93.40
2017-08-01T03:32:29.213Z,93.10
2017-08-01T03:34:55.260Z,93.10
2017-08-01T03:37:21.392Z,93.40
2017-08-01T03:39:47.410Z,94.00
2017-08-01T03:42:13.524Z,93.90
2017-08-01T03:44:40.284Z,94.60
2017-08-01T03:47:06.358Z,94.50
2017-08-01T03:49:32.664Z,94.50
2017-08-01T03:51:58.843Z,94.60
2017-08-01T03:54:24.875Z,95.10
2017-08-01T03:56:51.560Z,94.80
2017-08-01T03:59:17.658Z,94.90
2017-08-01T04:01:43.673Z,95.00
2017-08-01T04:04:09.679Z,94.60
2017-08-01T04:06:35.707Z,94.50
2017-08-01T04:09:01.636Z,94.80
2017-08-01T04:11:27.631Z,94.70
2017-08-01T04:13:53.601Z,94.30
2017-08-01T04:16:19.599Z,94.30
2017-08-01T04:18:45.622Z,94.60
2017-08-01T04:21:11.655Z,94.80
2017-08-01T04:23:37.651Z,94.40
2017-08-01T04:26:03.642Z,94.30
2017-08-01T04:28:30.534Z,94.80
2017-08-01T04:30:56.531Z,94.90
2017-08-01T04:33:23.226Z,95.00
2017-08-01T04:35:49.299Z,95.00
2017-08-01T04:38:15.266Z,95.00
2017-08-01T04:40:41.225Z,94.80
2017-08-01T04:43:07.192Z,94.60
2017-08-01T04:45:33.183Z,94.50
2017-08-01T04:47:59.244Z,93.90
2017-08-01T04:50:25.263Z,93.90
2017-08-01T04:52:51.566Z,93.90
2017-08-01T04:55:17.572Z,94.10
2017-08-01T04:57:44.262Z,94.10
2017-08-01T05:00:10.241Z,94.00
2017-08-01T05:02:36.476Z,94.20
2017-08-01T05:05:02.441Z,94.10
2017-08-01T05:07:28.420Z,93.80
2017-08-01T05:09:55.423Z,93.70
2017-08-01T05:12:21.968Z,93.40
2017-08-01T05:14:47.920Z,93.80
2017-08-01T05:17:13.935Z,93.70
2017-08-01T05:19:40.676Z,93.70
2017-08-01T05:22:06.658Z,93.70
2017-08-01T05:24:32.763Z,93.90
2017-08-01T05:26:58.749Z,93.60
2017-08-01T05:29:24.802Z,93.40
2017-08-01T05:31:50.814Z,93.20
2017-08-01T05:34:16.832Z,93.30
2017-08-01T05:36:42.962Z,93.60
2017-08-01T05:39:09.043Z,93.80
2017-08-01T05:41:35.112Z,94.20
2017-08-01T05:44:01.844Z,94.20
2017-08-01T05:46:28.233Z,94.10
2017-08-01T05:48:55.151Z,93.80
2017-08-01T05:51:21.123Z,93.70
2017-08-01T05:53:47.193Z,93.70
2017-08-01T05:56:13.311Z,93.40
2017-08-01T05:58:39.388Z,93.50
2017-08-01T06:01:05.969Z,93.20
2017-08-01T06:03:31.949Z,93.00
2017-08-01T06:05:58.641Z,92.20
2017-08-01T06:08:24.616Z,92.20
2017-08-01T06:10:50.570Z,92.10
2017-08-01T06:13:16.552Z,92.10
2017-08-01T06:15:42.594Z,91.90
2017-08-01T06:18:08.544Z,91.90
2017-08-01T06:20:34.547Z,91.80
2017-08-01T06:23:00.514Z,92.10
2017-08-01T06:25:26.479Z,91.90
2017-08-01T06:27:52.507Z,91.10
2017-08-01T06:30:18.435Z,91.10
2017-08-01T06:32:44.405Z,91.10
2017-08-01T06:35:10.379Z,90.70
2017-08-01T06:37:36.404Z,90.70
2017-08-01T06:40:02.356Z,90.20
2017-08-01T06:42:28.371Z,91.10
2017-08-01T06:44:54.399Z,92.10
2017-08-01T06:47:20.387Z,92.50
2017-08-01T06:49:46.360Z,92.50
2017-08-01T06:52:12.450Z,92.20
2017-08-01T06:54:39.103Z,91.60
2017-08-01T06:57:05.241Z,91.30
2017-08-01T06:59:32.150Z,91.30
2017-08-01T07:01:58.163Z,90.90
2017-08-01T07:04:24.221Z,90.20
2017-08-01T07:06:50.228Z,89.00
2017-08-01T07:09:16.288Z,87.00
2017-08-01T07:11:42.268Z,85.60
2017-08-01T07:14:08.296Z,85.80
2017-08-01T07:16:34.415Z,85.80
2017-08-01T07:19:02.023Z,84.60
2017-08-01T07:21:28.950Z,84.50
2017-08-01T07:23:55.183Z,87.30
2017-08-01T07:26:21.998Z,87.20
2017-08-01T07:28:48.275Z,87.80
2017-08-01T07:31:14.435Z,87.90
2017-08-01T07:33:40.470Z,88.20
2017-08-01T07:36:06.437Z,87.60
2017-08-01T07:38:34.213Z,88.10
2017-08-01T07:41:00.180Z,88.00
2017-08-01T07:43:26.207Z,87.00
2017-08-01T07:45:52.616Z,86.10
2017-08-01T07:48:19.606Z,84.10
2017-08-01T07:50:45.621Z,82.80
2017-08-01T07:53:12.197Z,84.30
2017-08-01T07:55:39.133Z,84.10
2017-08-01T07:58:05.827Z,84.40
2017-08-01T08:00:32.421Z,83.00
2017-08-01T08:02:59.353Z,84.30
2017-08-01T08:05:28.363Z,82.90
2017-08-01T08:07:54.428Z,82.90
2017-08-01T08:10:20.454Z,83.70
2017-08-01T08:12:46.524Z,84.50
2017-08-01T08:15:12.675Z,84.30
2017-08-01T08:17:39.757Z,84.60
2017-08-01T08:20:06.197Z,80.70
2017-08-01T08:22:32.338Z,80.80
2017-08-01T08:24:59.370Z,82.30
2017-08-01T08:27:26.168Z,81.70
2017-08-01T08:29:54.079Z,81.80
2017-08-01T08:32:21.115Z,83.40
2017-08-01T08:34:48.144Z,83.80
2017-08-01T08:37:15.219Z,82.20
2017-08-01T08:39:41.200Z,82.90
2017-08-01T08:42:07.182Z,83.60
2017-08-01T08:44:33.918Z,83.10
2017-08-01T08:46:59.929Z,83.10
2017-08-01T08:49:26.421Z,84.20
2017-08-01T08:51:53.479Z,85.10
2017-08-01T08:54:19.513Z,85.80
2017-08-01T08:56:46.963Z,86.40
2017-08-01T08:59:13.784Z,85.60
2017-08-01T09:01:39.985Z,84.70
2017-08-01T09:04:06.010Z,84.10
2017-08-01T09:06:32.061Z,83.00
2017-08-01T09:08:58.290Z,83.00
2017-08-01T09:11:24.255Z,81.90
2017-08-01T09:13:50.223Z,82.90
2017-08-01T09:16:17.849Z,81.90
2017-08-01T09:18:43.903Z,80.10
2017-08-01T09:21:11.553Z,79.80
2017-08-01T09:23:38.148Z,78.50
2017-08-01T09:26:04.167Z,79.50
2017-08-01T09:28:30.364Z,78.80
2017-08-01T09:30:56.421Z,79.30
2017-08-01T09:33:22.448Z,79.30
2017-08-01T09:35:52.995Z,79.40
2017-08-01T09:38:21.050Z,79.40
2017-08-01T09:40:48.550Z,78.30
2017-08-01T09:43:14.764Z,78.40
2017-08-01T09:45:41.465Z,78.90
2017-08-01T09:48:08.316Z,79.50
2017-08-01T09:50:35.904Z,78.40
2017-08-01T09:53:01.895Z,78.10
2017-08-01T09:55:27.826Z,77.20
2017-08-01T09:57:54.819Z,75.80
2017-08-01T10:00:20.869Z,76.80
2017-08-01T10:02:47.635Z,74.10
2017-08-01T10:05:14.362Z,74.00
2017-08-01T10:07:40.324Z,74.80
2017-08-01T10:10:06.295Z,73.90
2017-08-01T10:12:32.311Z,72.40
2017-08-01T10:14:59.069Z,69.90
2017-08-01T10:17:25.363Z,69.80
2017-08-01T10:19:51.390Z,68.60
2017-08-01T10:22:17.466Z,69.30
2017-08-01T10:24:45.321Z,69.30
2017-08-01T10:27:13.319Z,67.60
2017-08-01T10:29:41.176Z,67.30
2017-08-01T10:32:07.191Z,65.00
2017-08-01T10:34:35.054Z,63.50
2017-08-01T10:39:33.582Z,61.30
2017-08-01T10:42:00.794Z,60.20
2017-08-01T10:44:27.698Z,59.00
2017-08-01T10:46:53.814Z,58.70
2017-08-01T10:49:19.831Z,61.70
2017-08-01T10:51:45.801Z,59.60
2017-08-01T10:54:11.926Z,56.20
2017-08-01T10:56:37.964Z,57.30
2017-08-01T10:59:03.932Z,58.10
2017-08-01T11:01:30.002Z,58.10
2017-08-01T11:03:56.348Z,58.20
2017-08-01T11:06:22.457Z,58.30
2017-08-01T11:08:48.450Z,58.00
2017-08-01T11:11:15.241Z,59.20
2017-08-01T11:13:42.426Z,59.10
2017-08-01T11:16:08.658Z,61.70
2017-08-01T11:18:34.648Z,64.10
2017-08-01T11:21:02.129Z,65.20
2017-08-01T11:23:28.244Z,64.50
2017-08-01T11:25:54.280Z,64.50
2017-08-01T11:28:22.282Z,65.90
2017-08-01T11:30:48.363Z,67.80
2017-08-01T11:33:14.363Z,68.00
2017-08-01T11:35:40.410Z,67.50
2017-08-01T11:38:09.238Z,67.40
2017-08-01T11:40:35.333Z,67.80
2017-08-01T11:43:01.380Z,67.30
2017-08-01T11:45:27.477Z,66.80
2017-08-01T11:47:53.596Z,66.30
2017-08-01T11:50:21.485Z,64.60
2017-08-01T11:52:47.494Z,67.90
2017-08-01T11:55:13.522Z,70.10
2017-08-01T11:57:40.262Z,70.40
2017-08-01T12:00:06.328Z,69.50
2017-08-01T12:02:33.845Z,69.40
2017-08-01T12:05:00.927Z,66.90
2017-08-01T12:07:27.919Z,66.40
2017-08-01T12:09:54.787Z,65.40
2017-08-01T12:14:52.575Z,66.10
2017-08-01T12:17:18.592Z,64.70
2017-08-01T12:19:44.629Z,60.00
2017-08-01T12:22:10.651Z,59.10
2017-08-01T12:24:36.771Z,56.80
2017-08-01T12:27:03.745Z,56.40
2017-08-01T12:29:30.750Z,56.60
2017-08-01T12:31:58.032Z,56.20
2017-08-01T12:34:26.112Z,56.10
2017-08-01T12:36:53.924Z,55.00
2017-08-01T12:39:20.816Z,55.30
2017-08-01T12:41:47.015Z,55.70
2017-08-01T12:44:13.616Z,55.50
2017-08-01T12:46:40.506Z,54.70
2017-08-01T12:49:07.027Z,54.80
2017-08-01T12:51:33.052Z,54.00
2017-08-01T12:53:59.072Z,55.60
2017-08-01T12:56:25.389Z,55.90
2017-08-01T12:58:51.456Z,56.00
2017-08-01T13:01:17.481Z,56.40
2017-08-01T13:03:45.911Z,57.00
2017-08-01T13:06:12.052Z,58.10
2017-08-01T13:08:38.076Z,58.80
2017-08-01T13:11:04.554Z,59.40
2017-08-01T13:13:30.612Z,59.80
2017-08-01T13:15:56.808Z,60.40
2017-08-01T13:18:23.160Z,61.30
2017-08-01T13:20:49.957Z,62.20
2017-08-01T13:23:16.505Z,63.00
2017-08-01T13:25:42.488Z,63.70
2017-08-01T13:28:09.365Z,63.90
2017-08-01T13:30:35.352Z,64.50
2017-08-01T13:33:01.408Z,65.40
2017-08-01T13:35:27.399Z,66.20
2017-08-01T13:37:53.415Z,66.70
2017-08-01T13:40:19.475Z,67.40
2017-08-01T13:42:46.032Z,68.70
2017-08-01T13:45:12.129Z,70.90
2017-08-01T13:47:38.162Z,73.10
2017-08-01T13:50:04.235Z,74.10
2017-08-01T13:52:30.786Z,74.50
2017-08-01T13:54:56.837Z,75.20
2017-08-01T13:57:22.957Z,77.00
2017-08-01T13:59:49.311Z,77.70
2017-08-01T14:02:15.286Z,77.30
2017-08-01T14:04:41.348Z,78.00
2017-08-01T14:07:07.370Z,77.40
2017-08-01T14:09:33.374Z,77.10
2017-08-01T14:11:59.602Z,75.90
2017-08-01T14:14:25.653Z,77.40
2017-08-01T14:16:52.651Z,76.90
2017-08-01T14:19:19.216Z,75.80
2017-08-01T14:21:46.072Z,76.60
2017-08-01T14:24:12.083Z,78.00
2017-08-01T14:26:38.552Z,77.40
2017-08-01T14:29:08.491Z,77.40
2017-08-01T14:31:34.524Z,79.00
2017-08-01T14:34:00.879Z,79.00
2017-08-01T14:36:27.528Z,79.20
2017-08-01T14:38:53.557Z,79.60
2017-08-01T14:41:21.089Z,80.60
2017-08-01T14:43:47.927Z,82.70
2017-08-01T14:46:14.190Z,84.60
2017-08-01T14:48:40.280Z,86.00
2017-08-01T14:51:06.258Z,85.80
2017-08-01T14:53:33.991Z,84.80
2017-08-01T14:56:00.250Z,86.10
2017-08-01T14:58:26.819Z,86.20
2017-08-01T15:00:53.672Z,86.20
2017-08-01T15:03:19.706Z,85.50
2017-08-01T15:05:45.688Z,84.60
2017-08-01T15:08:13.086Z,84.00
2017-08-01T15:10:39.271Z,84.00
2017-08-01T15:13:05.309Z,84.40
2017-08-01T15:15:31.307Z,84.40
2017-08-01T15:18:01.230Z,85.70
2017-08-01T15:20:27.302Z,86.10
2017-08-01T15:22:55.428Z,86.20
2017-08-01T15:25:22.883Z,87.60
2017-08-01T15:27:49.762Z,88.70
2017-08-01T15:30:17.431Z,88.60
2017-08-01T15:32:44.289Z,88.60
2017-08-01T15:35:10.331Z,88.20
2017-08-01T15:37:36.369Z,90.00
2017-08-01T15:40:02.341Z,90.20
2017-08-01T15:42:28.448Z,90.00
2017-08-01T15:44:55.291Z,90.10
2017-08-01T15:47:22.018Z,88.90
2017-08-01T15:49:48.129Z,88.00
2017-08-01T15:52:14.200Z,87.70
2017-08-01T15:54:42.724Z,87.70
2017-08-01T15:57:10.644Z,86.80
2017-08-01T15:59:36.985Z,86.60
2017-08-01T16:02:03.632Z,85.90
2017-08-01T16:04:30.435Z,85.90
2017-08-01T16:06:56.563Z,85.80
2017-08-01T16:09:24.499Z,84.90
2017-08-01T16:11:51.261Z,85.20
2017-08-01T16:14:18.274Z,85.10
2017-08-01T16:16:44.539Z,84.20
2017-08-01T16:19:11.489Z,83.70
2017-08-01T16:21:39.851Z,84.20
2017-08-01T16:24:06.099Z,85.50
2017-08-01T16:26:32.212Z,85.00
2017-08-01T16:28:58.610Z,85.10
2017-08-01T16:31:25.747Z,86.20
2017-08-01T16:33:51.744Z,86.00
2017-08-01T16:36:17.857Z,85.90
2017-08-01T16:38:44.514Z,86.40
2017-08-01T16:41:13.568Z,86.20
2017-08-01T16:43:39.857Z,86.90
2017-08-01T16:46:06.629Z,86.20
2017-08-01T16:48:32.687Z,84.80
2017-08-01T16:50:59.507Z,84.10
2017-08-01T16:53:25.571Z,83.30
2017-08-01T16:55:52.458Z,82.00
2017-08-01T16:58:18.797Z,81.30
2017-08-01T17:00:45.803Z,81.00
2017-08-01T17:08:14.296Z,81.90
2017-08-01T17:10:40.482Z,82.10
2017-08-01T17:13:06.528Z,80.70
2017-08-01T17:15:32.726Z,81.50
2017-08-01T17:17:58.852Z,81.00
2017-08-01T17:20:25.053Z,81.20
2017-08-01T17:22:51.936Z,82.60
2017-08-01T17:25:18.051Z,82.60
2017-08-01T17:27:44.197Z,83.70
2017-08-01T17:30:10.300Z,83.50
2017-08-01T17:32:36.427Z,83.60
2017-08-01T17:35:03.591Z,82.40
2017-08-01T17:37:29.860Z,80.60
2017-08-01T17:39:56.053Z,81.50
2017-08-01T17:42:22.174Z,80.10
2017-08-01T17:44:48.407Z,80.60
2017-08-01T17:47:14.737Z,79.40
2017-08-01T17:49:40.805Z,77.50
2017-08-01T17:52:06.846Z,78.00
2017-08-01T17:54:33.059Z,79.40
2017-08-01T17:56:59.761Z,77.90
2017-08-01T17:59:25.923Z,73.80
2017-08-01T18:01:53.071Z,71.80
2017-08-01T18:04:19.154Z,73.50
2017-08-01T18:06:45.333Z,69.60
2017-08-01T18:09:11.726Z,70.40
2017-08-01T18:11:38.200Z,71.70
2017-08-01T18:14:04.369Z,73.70
2017-08-01T18:16:30.664Z,74.40
2017-08-01T18:18:56.705Z,73.20
2017-08-01T18:21:23.068Z,71.70
2017-08-01T18:23:49.308Z,69.90
2017-08-01T18:26:15.458Z,70.60
2017-08-01T18:28:41.794Z,70.00
2017-08-01T18:31:07.951Z,70.20
2017-08-01T18:33:34.049Z,70.60
2017-08-01T18:36:00.079Z,74.10
2017-08-01T18:38:26.629Z,81.70
2017-08-01T18:40:52.929Z,82.70
2017-08-01T18:43:18.957Z,83.80
2017-08-01T18:45:45.077Z,84.00
2017-08-01T18:48:11.180Z,83.90
2017-08-01T18:50:37.279Z,84.00
2017-08-01T18:53:03.516Z,83.70
2017-08-01T18:55:30.804Z,82.00
2017-08-01T18:57:57.861Z,81.80
2017-08-01T19:00:23.852Z,80.90
2017-08-01T19:02:49.960Z,81.10
2017-08-01T19:05:16.451Z,76.60
2017-08-01T19:07:42.609Z,76.60
2017-08-01T19:10:08.626Z,75.90
2017-08-01T19:12:34.787Z,74.30
2017-08-01T19:15:01.017Z,74.50
2017-08-01T19:17:28.002Z,74.40
2017-08-01T19:19:54.156Z,75.40
2017-08-01T19:22:21.157Z,75.40
2017-08-01T19:24:47.301Z,75.20
2017-08-01T19:27:13.337Z,75.40
2017-08-01T19:29:39.343Z,74.80
2017-08-01T19:32:06.130Z,75.80
2017-08-01T19:34:32.183Z,76.70
2017-08-01T19:36:58.170Z,77.50
2017-08-01T19:39:25.537Z,79.00
2017-08-01T19:41:52.461Z,83.00
2017-08-01T19:44:18.729Z,82.90
2017-08-01T19:46:45.589Z,83.00
2017-08-01T19:49:11.696Z,81.90
2017-08-01T19:51:38.708Z,82.10
2017-08-01T19:54:05.704Z,82.20
2017-08-01T19:56:32.790Z,82.70
2017-08-01T19:59:04.264Z,81.70
2017-08-01T20:01:32.307Z,81.10
2017-08-01T20:04:02.987Z,80.90
2017-08-01T20:06:31.465Z,80.80
2017-08-01T20:08:59.060Z,80.00
2017-08-01T20:11:26.872Z,80.60
2017-08-01T20:13:55.936Z,81.30
2017-08-01T20:16:26.370Z,82.30
2017-08-01T20:18:55.672Z,83.10
2017-08-01T20:21:24.891Z,84.00
2017-08-01T20:23:54.206Z,84.40
2017-08-01T20:26:23.275Z,85.50
2017-08-01T20:28:52.797Z,86.20
2017-08-01T20:31:20.423Z,87.40
2017-08-01T20:33:46.487Z,88.10
2017-08-01T20:36:12.508Z,88.00
2017-08-01T20:38:38.518Z,88.20
2017-08-01T20:41:07.011Z,88.60
2017-08-01T20:43:33.899Z,88.80
2017-08-01T20:46:01.107Z,88.90
2017-08-01T20:48:27.142Z,89.30
2017-08-01T20:50:53.143Z,89.90
2017-08-01T20:53:21.480Z,88.80
2017-08-01T20:55:48.800Z,88.70
2017-08-01T20:58:18.282Z,88.00
2017-08-01T21:00:44.300Z,88.40
2017-08-01T21:03:11.438Z,89.50
2017-08-01T21:05:39.992Z,89.80
2017-08-01T21:08:06.104Z,90.00
2017-08-01T21:10:32.109Z,90.20
2017-08-01T21:12:58.113Z,90.20
2017-08-01T21:15:29.361Z,90.10
2017-08-01T21:17:56.300Z,90.30
2017-08-01T21:20:24.069Z,90.40
2017-08-01T21:22:50.868Z,90.30
2017-08-01T21:25:28.637Z,90.30
2017-08-01T21:28:00.975Z,90.60
2017-08-01T21:30:35.368Z,90.60
2017-08-01T21:33:08.491Z,90.70
2017-08-01T21:35:35.870Z,90.70
2017-08-01T21:38:17.827Z,90.60
2017-08-01T21:40:44.882Z,90.90
2017-08-01T21:43:12.208Z,90.90
2017-08-01T21:45:55.957Z,90.80
2017-08-01T21:48:22.219Z,90.80
2017-08-01T21:50:54.241Z,90.80
2017-08-01T21:53:23.915Z,90.90
2017-08-01T21:55:49.876Z,90.70
2017-08-01T21:58:15.827Z,90.60
2017-08-01T22:00:42.645Z,90.60
2017-08-01T22:03:08.616Z,90.60
2017-08-01T22:05:45.334Z,90.50
2017-08-01T22:08:12.570Z,90.30
2017-08-01T22:10:39.613Z,90.20
2017-08-01T22:13:13.100Z,90.40
2017-08-01T22:15:47.591Z,90.60
2017-08-01T22:18:15.928Z,90.70
2017-08-01T22:20:42.867Z,90.70
2017-08-01T22:23:09.029Z,90.60
2017-08-01T22:25:35.015Z,90.60
2017-08-01T22:28:00.956Z,90.60
2017-08-01T22:30:26.896Z,90.50
2017-08-01T22:32:56.407Z,90.70
2017-08-01T22:35:25.719Z,90.70
2017-08-01T22:37:51.720Z,90.10
2017-08-01T22:40:17.767Z,89.90
2017-08-01T22:42:43.715Z,89.80
2017-08-01T22:45:09.786Z,89.90
2017-08-01T22:47:36.533Z,90.10
2017-08-01T22:50:02.496Z,90.20
2017-08-01T22:52:28.676Z,90.30
2017-08-01T22:54:54.713Z,90.40
2017-08-01T22:57:22.603Z,90.60
2017-08-01T22:59:48.538Z,90.70
2017-08-01T23:02:14.531Z,90.90
2017-08-01T23:04:41.117Z,91.20
2017-08-01T23:07:07.181Z,91.10
2017-08-01T23:09:33.175Z,91.10
2017-08-01T23:11:59.189Z,91.20
2017-08-01T23:14:25.136Z,91.40
2017-08-01T23:16:51.087Z,91.50
2017-08-01T23:19:17.051Z,92.00
2017-08-01T23:21:43.826Z,92.10
2017-08-01T23:24:09.847Z,92.00
2017-08-01T23:26:35.787Z,92.10
2017-08-01T23:29:02.697Z,92.30
2017-08-01T23:31:28.694Z,92.30
2017-08-01T23:33:54.866Z,92.30
2017-08-01T23:36:20.818Z,92.00
2017-08-01T23:38:46.809Z,92.20
2017-08-01T23:41:14.815Z,92.60
2017-08-01T23:43:40.778Z,92.70
2017-08-01T23:46:06.726Z,92.70
2017-08-01T23:48:32.674Z,92.70
2017-08-01T23:50:59.410Z,92.80
2017-08-01T23:53:25.344Z,92.80
2017-08-01T23:55:51.277Z,92.90
2017-08-01T23:58:18.253Z,92.90
